createdAt,value
2023-01-30T00:00:05.200Z,22.30
2023-01-30T00:15:06.647Z,22.20
2023-01-30T00:30:08.099Z,22.20
2023-01-30T00:45:09.566Z,22.20
2023-01-30T01:00:11.021Z,22.20
2023-01-30T01:15:12.546Z,22.20
2023-01-30T01:30:13.994Z,22.20
2023-01-30T01:45:15.681Z,22.20
2023-01-30T02:00:17.269Z,22.10
2023-01-30T02:15:19.080Z,22.10
2023-01-30T02:30:20.772Z,22.10
2023-01-30T02:45:22.264Z,22.10
2023-01-30T03:00:23.732Z,22.10
2023-01-30T03:15:25.177Z,22.10
2023-01-30T03:30:26.648Z,22.10
2023-01-30T03:45:28.122Z,22.10
2023-01-30T04:00:29.563Z,22.10
2023-01-30T04:15:31.151Z,22.10
2023-01-30T04:30:32.656Z,22.10
2023-01-30T04:45:34.148Z,22.00
2023-01-30T05:00:35.615Z,22.10
2023-01-30T05:15:37.165Z,22.00
2023-01-30T05:30:38.743Z,22.00
2023-01-30T05:45:40.234Z,22.00
2023-01-30T06:00:41.684Z,22.00
2023-01-30T06:15:43.203Z,22.00
2023-01-30T06:30:44.760Z,22.00
2023-01-30T06:45:46.377Z,22.10
2023-01-30T07:00:47.878Z,22.00
2023-01-30T07:15:49.340Z,22.00
2023-01-30T07:30:50.861Z,22.00
2023-01-30T07:45:52.368Z,22.00
2023-01-30T08:00:53.870Z,22.00
2023-01-30T08:15:55.330Z,22.10
2023-01-30T08:30:56.885Z,22.10
2023-01-30T08:45:58.629Z,22.20
2023-01-30T09:01:00.211Z,22.40
2023-01-30T09:16:01.722Z,22.70
2023-01-30T09:31:03.309Z,22.90
2023-01-30T09:46:04.926Z,22.80
2023-01-30T10:01:06.501Z,22.70
2023-01-30T10:16:07.999Z,22.70
2023-01-30T10:31:09.623Z,22.80
2023-01-30T10:46:11.244Z,22.90
2023-01-30T11:01:12.757Z,22.70
2023-01-30T11:16:14.242Z,22.80
2023-01-30T11:31:15.850Z,23.40
2023-01-30T11:46:17.335Z,24.10
2023-01-30T12:01:18.799Z,24.50
2023-01-30T12:16:20.300Z,24.40
2023-01-30T12:31:21.780Z,24.20
2023-01-30T12:46:23.303Z,24.50
2023-01-30T13:01:24.878Z,24.00
2023-01-30T13:16:26.408Z,24.20
2023-01-30T13:31:28.032Z,23.90
2023-01-30T13:46:29.623Z,23.80
2023-01-30T14:01:31.101Z,23.60
2023-01-30T14:16:32.612Z,23.50
2023-01-30T14:31:34.143Z,23.40
2023-01-30T14:46:35.711Z,23.50
2023-01-30T15:01:37.260Z,23.40
2023-01-30T15:16:38.777Z,23.30
2023-01-30T15:31:40.395Z,23.20
2023-01-30T15:46:41.904Z,23.10
2023-01-30T16:01:43.469Z,23.00
2023-01-30T16:16:45.050Z,22.90
2023-01-30T16:31:46.633Z,22.80
2023-01-30T16:46:48.196Z,22.70
2023-01-30T17:01:49.736Z,22.60
2023-01-30T17:16:51.256Z,22.50
2023-01-30T17:31:52.798Z,22.50
2023-01-30T17:46:54.431Z,22.40
2023-01-30T18:01:55.962Z,22.40
2023-01-30T18:16:57.507Z,22.20
2023-01-30T18:31:58.965Z,22.20
2023-01-30T18:47:00.444Z,22.10
2023-01-30T19:02:01.915Z,22.10
2023-01-30T19:17:03.395Z,22.10
2023-01-30T19:32:04.988Z,22.00
2023-01-30T19:47:07.690Z,22.00
2023-01-30T20:02:09.169Z,22.00
2023-01-30T20:17:10.671Z,22.00
2023-01-30T20:32:12.166Z,22.10
2023-01-30T20:47:13.854Z,22.10
2023-01-30T21:02:15.302Z,22.10
2023-01-30T21:17:16.786Z,22.10
2023-01-30T21:32:18.247Z,22.00
2023-01-30T21:47:19.704Z,22.00
2023-01-30T22:02:21.172Z,22.00
2023-01-30T22:17:22.680Z,22.00
2023-01-30T22:32:24.147Z,22.00
2023-01-30T22:47:25.615Z,22.10
2023-01-30T23:02:27.184Z,22.00
2023-01-30T23:17:28.651Z,22.00
2023-01-30T23:32:30.129Z,22.00
2023-01-30T23:47:31.587Z,21.90
